sensor_id;sensor_type;location;lat;lon;timestamp;temperature;humidity
51175;DHT22;37240;50.104;20.010;2023-07-31T00:02:06;23.00;92.90
51175;DHT22;37240;50.104;20.010;2023-07-31T00:07:07;22.80;93.60
51175;DHT22;37240;50.104;20.010;2023-07-31T00:12:08;22.70;93.70
51175;DHT22;37240;50.104;20.010;2023-07-31T00:17:08;22.80;93.70
51175;DHT22;37240;50.104;20.010;2023-07-31T00:22:09;22.80;93.90
51175;DHT22;37240;50.104;20.010;2023-07-31T00:27:09;22.80;93.90
51175;DHT22;37240;50.104;20.010;2023-07-31T00:32:10;22.80;93.90
51175;DHT22;37240;50.104;20.010;2023-07-31T00:37:10;22.80;94.00
51175;DHT22;37240;50.104;20.010;2023-07-31T00:42:11;22.80;93.90
51175;DHT22;37240;50.104;20.010;2023-07-31T00:47:11;22.70;94.00
51175;DHT22;37240;50.104;20.010;2023-07-31T00:52:12;22.60;94.10
51175;DHT22;37240;50.104;20.010;2023-07-31T00:57:13;22.60;94.20
51175;DHT22;37240;50.104;20.010;2023-07-31T01:02:14;22.50;94.20
51175;DHT22;37240;50.104;20.010;2023-07-31T01:07:22;22.50;94.40
51175;DHT22;37240;50.104;20.010;2023-07-31T01:12:27;22.40;94.60
51175;DHT22;37240;50.104;20.010;2023-07-31T01:17:28;22.30;94.90
51175;DHT22;37240;50.104;20.010;2023-07-31T01:27:51;22.30;95.20
51175;DHT22;37240;50.104;20.010;2023-07-31T01:32:54;22.20;95.40
51175;DHT22;37240;50.104;20.010;2023-07-31T01:37:56;22.00;95.90
51175;DHT22;37240;50.104;20.010;2023-07-31T01:42:56;22.00;96.20
51175;DHT22;37240;50.104;20.010;2023-07-31T01:47:57;22.00;96.20
51175;DHT22;37240;50.104;20.010;2023-07-31T01:52:57;22.00;96.40
51175;DHT22;37240;50.104;20.010;2023-07-31T01:57:58;22.00;96.70
51175;DHT22;37240;50.104;20.010;2023-07-31T02:02:59;22.00;96.70
51175;DHT22;37240;50.104;20.010;2023-07-31T02:08:00;22.00;96.90
51175;DHT22;37240;50.104;20.010;2023-07-31T02:13:00;21.90;97.10
51175;DHT22;37240;50.104;20.010;2023-07-31T02:18:01;22.00;97.30
51175;DHT22;37240;50.104;20.010;2023-07-31T02:23:01;21.90;97.50
51175;DHT22;37240;50.104;20.010;2023-07-31T02:28:02;22.00;97.70
51175;DHT22;37240;50.104;20.010;2023-07-31T02:33:03;21.90;97.80
51175;DHT22;37240;50.104;20.010;2023-07-31T02:38:04;21.80;98.20
51175;DHT22;37240;50.104;20.010;2023-07-31T02:43:04;21.80;98.40
51175;DHT22;37240;50.104;20.010;2023-07-31T02:48:05;21.80;98.60
51175;DHT22;37240;50.104;20.010;2023-07-31T02:53:05;21.70;98.70
51175;DHT22;37240;50.104;20.010;2023-07-31T02:58:06;21.70;98.80
51175;DHT22;37240;50.104;20.010;2023-07-31T03:03:06;21.60;99.00
51175;DHT22;37240;50.104;20.010;2023-07-31T03:08:07;21.60;99.20
51175;DHT22;37240;50.104;20.010;2023-07-31T03:13:07;21.50;99.30
51175;DHT22;37240;50.104;20.010;2023-07-31T03:18:08;21.50;99.30
51175;DHT22;37240;50.104;20.010;2023-07-31T03:23:09;21.60;99.30
51175;DHT22;37240;50.104;20.010;2023-07-31T03:28:09;21.50;99.30
51175;DHT22;37240;50.104;20.010;2023-07-31T03:33:10;21.50;99.30
51175;DHT22;37240;50.104;20.010;2023-07-31T03:38:10;21.50;99.40
51175;DHT22;37240;50.104;20.010;2023-07-31T03:43:12;21.50;99.40
51175;DHT22;37240;50.104;20.010;2023-07-31T03:48:14;21.50;99.30
51175;DHT22;37240;50.104;20.010;2023-07-31T03:53:15;21.50;99.20
51175;DHT22;37240;50.104;20.010;2023-07-31T03:58:15;21.50;99.20
51175;DHT22;37240;50.104;20.010;2023-07-31T04:03:16;21.50;99.20
51175;DHT22;37240;50.104;20.010;2023-07-31T04:08:17;21.90;98.80
51175;DHT22;37240;50.104;20.010;2023-07-31T04:13:18;22.50;97.60
51175;DHT22;37240;50.104;20.010;2023-07-31T04:18:19;22.70;96.50
51175;DHT22;37240;50.104;20.010;2023-07-31T04:23:20;23.10;96.00
51175;DHT22;37240;50.104;20.010;2023-07-31T04:28:20;23.60;95.00
51175;DHT22;37240;50.104;20.010;2023-07-31T04:33:21;25.00;92.90
51175;DHT22;37240;50.104;20.010;2023-07-31T04:38:21;25.70;90.20
51175;DHT22;37240;50.104;20.010;2023-07-31T04:43:22;25.60;88.60
51175;DHT22;37240;50.104;20.010;2023-07-31T04:48:22;25.30;89.10
51175;DHT22;37240;50.104;20.010;2023-07-31T04:53:23;25.20;88.80
51175;DHT22;37240;50.104;20.010;2023-07-31T04:58:23;25.80;87.80
51175;DHT22;37240;50.104;20.010;2023-07-31T05:03:24;26.90;83.10
51175;DHT22;37240;50.104;20.010;2023-07-31T05:08:24;27.80;78.60
51175;DHT22;37240;50.104;20.010;2023-07-31T05:13:25;28.00;75.70
51175;DHT22;37240;50.104;20.010;2023-07-31T05:18:25;28.00;74.40
51175;DHT22;37240;50.104;20.010;2023-07-31T05:23:26;27.70;74.00
51175;DHT22;37240;50.104;20.010;2023-07-31T05:28:27;27.10;75.30
51175;DHT22;37240;50.104;20.010;2023-07-31T05:33:27;26.30;77.60
51175;DHT22;37240;50.104;20.010;2023-07-31T05:38:28;25.80;80.20
51175;DHT22;37240;50.104;20.010;2023-07-31T05:43:28;25.20;82.60
51175;DHT22;37240;50.104;20.010;2023-07-31T05:48:29;24.80;84.40
51175;DHT22;37240;50.104;20.010;2023-07-31T05:53:30;24.80;85.40
51175;DHT22;37240;50.104;20.010;2023-07-31T05:58:31;24.80;86.00
51175;DHT22;37240;50.104;20.010;2023-07-31T06:03:31;24.80;85.80
51175;DHT22;37240;50.104;20.010;2023-07-31T06:08:32;24.80;85.30
51175;DHT22;37240;50.104;20.010;2023-07-31T06:13:32;24.70;84.80
51175;DHT22;37240;50.104;20.010;2023-07-31T06:18:33;24.80;85.10
51175;DHT22;37240;50.104;20.010;2023-07-31T06:23:33;24.90;83.80
51175;DHT22;37240;50.104;20.010;2023-07-31T06:28:34;25.00;83.50
51175;DHT22;37240;50.104;20.010;2023-07-31T06:33:35;25.10;84.00
51175;DHT22;37240;50.104;20.010;2023-07-31T06:38:36;25.10;84.00
51175;DHT22;37240;50.104;20.010;2023-07-31T06:43:37;25.00;84.20
51175;DHT22;37240;50.104;20.010;2023-07-31T06:48:37;24.90;84.90
51175;DHT22;37240;50.104;20.010;2023-07-31T06:53:38;24.90;85.10
51175;DHT22;37240;50.104;20.010;2023-07-31T06:58:39;25.20;84.50
51175;DHT22;37240;50.104;20.010;2023-07-31T07:03:39;25.70;82.80
51175;DHT22;37240;50.104;20.010;2023-07-31T07:08:40;26.10;81.10
51175;DHT22;37240;50.104;20.010;2023-07-31T07:13:40;26.40;78.80
51175;DHT22;37240;50.104;20.010;2023-07-31T07:18:41;26.60;76.40
51175;DHT22;37240;50.104;20.010;2023-07-31T07:23:42;27.20;74.10
51175;DHT22;37240;50.104;20.010;2023-07-31T07:28:43;27.80;71.90
51175;DHT22;37240;50.104;20.010;2023-07-31T07:33:43;28.10;68.80
51175;DHT22;37240;50.104;20.010;2023-07-31T07:38:44;28.30;66.90
51175;DHT22;37240;50.104;20.010;2023-07-31T07:43:44;28.20;66.70
51175;DHT22;37240;50.104;20.010;2023-07-31T07:48:45;28.30;66.50
51175;DHT22;37240;50.104;20.010;2023-07-31T07:53:46;28.30;66.80
51175;DHT22;37240;50.104;20.010;2023-07-31T07:58:49;28.20;67.70
51175;DHT22;37240;50.104;20.010;2023-07-31T08:03:50;28.00;67.50
51175;DHT22;37240;50.104;20.010;2023-07-31T08:08:50;27.90;68.00
51175;DHT22;37240;50.104;20.010;2023-07-31T08:13:51;28.20;66.10
51175;DHT22;37240;50.104;20.010;2023-07-31T08:18:51;29.10;62.40
51175;DHT22;37240;50.104;20.010;2023-07-31T08:23:52;29.10;61.50
51175;DHT22;37240;50.104;20.010;2023-07-31T08:28:52;29.10;61.50
51175;DHT22;37240;50.104;20.010;2023-07-31T08:33:53;29.20;60.50
51175;DHT22;37240;50.104;20.010;2023-07-31T08:38:53;29.10;59.20
51175;DHT22;37240;50.104;20.010;2023-07-31T08:43:55;29.10;59.70
51175;DHT22;37240;50.104;20.010;2023-07-31T08:48:58;29.10;60.30
51175;DHT22;37240;50.104;20.010;2023-07-31T08:53:59;29.00;61.30
51175;DHT22;37240;50.104;20.010;2023-07-31T08:59:02;29.00;60.60
51175;DHT22;37240;50.104;20.010;2023-07-31T09:04:04;28.90;61.40
51175;DHT22;37240;50.104;20.010;2023-07-31T09:09:05;28.80;62.20
51175;DHT22;37240;50.104;20.010;2023-07-31T09:14:07;28.80;61.80
51175;DHT22;37240;50.104;20.010;2023-07-31T09:19:08;29.40;59.30
51175;DHT22;37240;50.104;20.010;2023-07-31T09:24:09;29.40;59.10
51175;DHT22;37240;50.104;20.010;2023-07-31T09:29:19;29.40;58.70
51175;DHT22;37240;50.104;20.010;2023-07-31T09:34:20;29.80;58.60
51175;DHT22;37240;50.104;20.010;2023-07-31T09:39:21;30.40;57.00
51175;DHT22;37240;50.104;20.010;2023-07-31T09:44:25;31.00;56.00
51175;DHT22;37240;50.104;20.010;2023-07-31T09:49:37;31.60;54.20
51175;DHT22;37240;50.104;20.010;2023-07-31T09:54:37;31.70;52.30
51175;DHT22;37240;50.104;20.010;2023-07-31T09:59:38;31.40;53.00
51175;DHT22;37240;50.104;20.010;2023-07-31T10:04:39;30.80;53.90
51175;DHT22;37240;50.104;20.010;2023-07-31T10:09:40;30.40;54.50
51175;DHT22;37240;50.104;20.010;2023-07-31T10:14:41;30.30;54.90
51175;DHT22;37240;50.104;20.010;2023-07-31T10:19:43;30.20;54.50
51175;DHT22;37240;50.104;20.010;2023-07-31T10:24:45;30.00;54.70
51175;DHT22;37240;50.104;20.010;2023-07-31T10:29:47;29.70;54.40
51175;DHT22;37240;50.104;20.010;2023-07-31T10:34:49;29.50;54.30
51175;DHT22;37240;50.104;20.010;2023-07-31T10:40:02;29.30;53.90
51175;DHT22;37240;50.104;20.010;2023-07-31T10:45:05;29.80;54.60
51175;DHT22;37240;50.104;20.010;2023-07-31T10:50:20;31.40;51.10
51175;DHT22;37240;50.104;20.010;2023-07-31T10:55:25;32.00;48.80
51175;DHT22;37240;50.104;20.010;2023-07-31T11:00:26;31.80;48.00
51175;DHT22;37240;50.104;20.010;2023-07-31T11:05:53;31.60;48.70
51175;DHT22;37240;50.104;20.010;2023-07-31T11:11:05;31.50;48.60
51175;DHT22;37240;50.104;20.010;2023-07-31T11:16:06;31.00;49.50
51175;DHT22;37240;50.104;20.010;2023-07-31T11:21:08;30.50;50.40
51175;DHT22;37240;50.104;20.010;2023-07-31T11:26:08;30.10;49.40
51175;DHT22;37240;50.104;20.010;2023-07-31T11:31:10;30.50;49.50
51175;DHT22;37240;50.104;20.010;2023-07-31T11:36:18;30.90;49.60
51175;DHT22;37240;50.104;20.010;2023-07-31T11:41:19;31.20;48.80
51175;DHT22;37240;50.104;20.010;2023-07-31T11:46:20;31.20;48.10
51175;DHT22;37240;50.104;20.010;2023-07-31T11:51:21;31.40;46.80
51175;DHT22;37240;50.104;20.010;2023-07-31T11:56:23;31.40;47.10
51175;DHT22;37240;50.104;20.010;2023-07-31T12:01:24;31.30;46.10
51175;DHT22;37240;50.104;20.010;2023-07-31T12:06:35;31.30;47.10
51175;DHT22;37240;50.104;20.010;2023-07-31T12:11:45;31.20;46.50
51175;DHT22;37240;50.104;20.010;2023-07-31T12:16:47;31.20;47.20
51175;DHT22;37240;50.104;20.010;2023-07-31T12:21:47;31.10;44.80
51175;DHT22;37240;50.104;20.010;2023-07-31T12:26:48;31.40;44.40
51175;DHT22;37240;50.104;20.010;2023-07-31T12:31:49;31.30;46.00
51175;DHT22;37240;50.104;20.010;2023-07-31T12:36:50;31.10;46.40
51175;DHT22;37240;50.104;20.010;2023-07-31T12:41:52;30.70;46.90
51175;DHT22;37240;50.104;20.010;2023-07-31T12:46:53;30.50;46.40
51175;DHT22;37240;50.104;20.010;2023-07-31T12:51:53;31.00;45.40
51175;DHT22;37240;50.104;20.010;2023-07-31T12:56:54;31.20;45.70
51175;DHT22;37240;50.104;20.010;2023-07-31T13:01:55;31.20;46.40
51175;DHT22;37240;50.104;20.010;2023-07-31T13:06:55;31.20;45.10
51175;DHT22;37240;50.104;20.010;2023-07-31T13:11:56;31.40;45.30
51175;DHT22;37240;50.104;20.010;2023-07-31T13:16:56;31.50;45.60
51175;DHT22;37240;50.104;20.010;2023-07-31T13:21:57;31.60;45.40
51175;DHT22;37240;50.104;20.010;2023-07-31T13:26:57;31.40;45.40
51175;DHT22;37240;50.104;20.010;2023-07-31T13:31:58;31.50;45.30
51175;DHT22;37240;50.104;20.010;2023-07-31T13:36:59;31.60;44.30
51175;DHT22;37240;50.104;20.010;2023-07-31T13:42:00;31.60;44.40
51175;DHT22;37240;50.104;20.010;2023-07-31T13:47:00;31.70;45.00
51175;DHT22;37240;50.104;20.010;2023-07-31T13:52:01;31.80;45.00
51175;DHT22;37240;50.104;20.010;2023-07-31T13:57:02;31.50;45.00
51175;DHT22;37240;50.104;20.010;2023-07-31T14:02:03;31.10;45.70
51175;DHT22;37240;50.104;20.010;2023-07-31T14:07:04;30.60;46.60
51175;DHT22;37240;50.104;20.010;2023-07-31T14:12:05;30.20;46.90
51175;DHT22;37240;50.104;20.010;2023-07-31T14:17:05;29.60;47.10
51175;DHT22;37240;50.104;20.010;2023-07-31T14:22:06;29.40;47.40
51175;DHT22;37240;50.104;20.010;2023-07-31T14:27:07;29.30;47.90
51175;DHT22;37240;50.104;20.010;2023-07-31T14:32:08;29.20;48.60
51175;DHT22;37240;50.104;20.010;2023-07-31T14:37:08;29.10;48.20
51175;DHT22;37240;50.104;20.010;2023-07-31T14:42:09;29.10;48.20
51175;DHT22;37240;50.104;20.010;2023-07-31T14:47:09;29.00;48.40
51175;DHT22;37240;50.104;20.010;2023-07-31T14:52:10;29.60;47.50
51175;DHT22;37240;50.104;20.010;2023-07-31T14:57:11;31.10;45.70
51175;DHT22;37240;50.104;20.010;2023-07-31T15:02:11;31.20;44.30
51175;DHT22;37240;50.104;20.010;2023-07-31T15:07:12;30.70;45.30
51175;DHT22;37240;50.104;20.010;2023-07-31T15:12:13;30.60;45.00
51175;DHT22;37240;50.104;20.010;2023-07-31T15:17:13;30.90;45.50
51175;DHT22;37240;50.104;20.010;2023-07-31T15:22:14;30.90;45.30
51175;DHT22;37240;50.104;20.010;2023-07-31T15:27:14;30.60;47.60
51175;DHT22;37240;50.104;20.010;2023-07-31T15:32:15;30.10;47.00
51175;DHT22;37240;50.104;20.010;2023-07-31T15:37:15;29.60;48.10
51175;DHT22;37240;50.104;20.010;2023-07-31T15:42:16;29.10;52.20
51175;DHT22;37240;50.104;20.010;2023-07-31T15:47:17;28.70;50.10
51175;DHT22;37240;50.104;20.010;2023-07-31T15:52:17;28.50;50.20
51175;DHT22;37240;50.104;20.010;2023-07-31T15:57:18;28.20;50.80
51175;DHT22;37240;50.104;20.010;2023-07-31T16:02:18;28.10;51.50
51175;DHT22;37240;50.104;20.010;2023-07-31T16:07:19;28.00;51.90
51175;DHT22;37240;50.104;20.010;2023-07-31T16:12:20;27.90;54.90
51175;DHT22;37240;50.104;20.010;2023-07-31T16:17:20;27.90;52.50
51175;DHT22;37240;50.104;20.010;2023-07-31T16:22:21;27.80;52.80
51175;DHT22;37240;50.104;20.010;2023-07-31T16:27:21;27.80;54.50
51175;DHT22;37240;50.104;20.010;2023-07-31T16:32:22;27.80;54.10
51175;DHT22;37240;50.104;20.010;2023-07-31T16:37:22;27.80;54.20
51175;DHT22;37240;50.104;20.010;2023-07-31T16:42:23;27.80;53.70
51175;DHT22;37240;50.104;20.010;2023-07-31T16:47:23;27.70;53.50
51175;DHT22;37240;50.104;20.010;2023-07-31T16:52:24;27.70;54.20
51175;DHT22;37240;50.104;20.010;2023-07-31T16:57:25;27.70;55.00
51175;DHT22;37240;50.104;20.010;2023-07-31T17:02:25;27.70;53.70
51175;DHT22;37240;50.104;20.010;2023-07-31T17:07:26;27.50;53.70
51175;DHT22;37240;50.104;20.010;2023-07-31T17:12:26;27.40;54.10
51175;DHT22;37240;50.104;20.010;2023-07-31T17:17:27;27.40;53.60
51175;DHT22;37240;50.104;20.010;2023-07-31T17:22:27;27.30;54.30
51175;DHT22;37240;50.104;20.010;2023-07-31T17:27:28;27.20;54.80
51175;DHT22;37240;50.104;20.010;2023-07-31T17:32:28;27.20;56.30
51175;DHT22;37240;50.104;20.010;2023-07-31T17:37:29;27.10;55.40
51175;DHT22;37240;50.104;20.010;2023-07-31T17:42:29;27.00;55.30
51175;DHT22;37240;50.104;20.010;2023-07-31T17:47:30;27.00;55.90
51175;DHT22;37240;50.104;20.010;2023-07-31T17:52:33;26.80;56.40
51175;DHT22;37240;50.104;20.010;2023-07-31T17:57:33;26.60;56.70
51175;DHT22;37240;50.104;20.010;2023-07-31T18:02:34;26.50;57.30
51175;DHT22;37240;50.104;20.010;2023-07-31T18:07:34;26.30;58.30
51175;DHT22;37240;50.104;20.010;2023-07-31T18:12:36;26.10;58.10
51175;DHT22;37240;50.104;20.010;2023-07-31T18:17:37;26.00;58.20
51175;DHT22;37240;50.104;20.010;2023-07-31T18:22:38;25.90;58.40
51175;DHT22;37240;50.104;20.010;2023-07-31T18:27:38;25.80;59.00
51175;DHT22;37240;50.104;20.010;2023-07-31T18:32:39;25.80;58.70
51175;DHT22;37240;50.104;20.010;2023-07-31T18:37:39;25.80;58.60
51175;DHT22;37240;50.104;20.010;2023-07-31T18:42:40;25.80;58.30
51175;DHT22;37240;50.104;20.010;2023-07-31T18:47:40;25.70;58.20
51175;DHT22;37240;50.104;20.010;2023-07-31T18:52:41;25.70;59.30
51175;DHT22;37240;50.104;20.010;2023-07-31T18:57:42;25.60;59.20
51175;DHT22;37240;50.104;20.010;2023-07-31T19:02:43;25.40;60.30
51175;DHT22;37240;50.104;20.010;2023-07-31T19:07:43;25.40;60.80
51175;DHT22;37240;50.104;20.010;2023-07-31T19:12:44;25.40;60.80
51175;DHT22;37240;50.104;20.010;2023-07-31T19:17:44;25.40;61.20
51175;DHT22;37240;50.104;20.010;2023-07-31T19:22:45;25.40;60.20
51175;DHT22;37240;50.104;20.010;2023-07-31T19:27:45;25.30;59.80
51175;DHT22;37240;50.104;20.010;2023-07-31T19:32:46;25.20;60.50
51175;DHT22;37240;50.104;20.010;2023-07-31T19:37:46;25.20;61.80
51175;DHT22;37240;50.104;20.010;2023-07-31T19:42:47;25.10;63.40
51175;DHT22;37240;50.104;20.010;2023-07-31T19:47:48;25.00;61.80
51175;DHT22;37240;50.104;20.010;2023-07-31T19:52:48;25.10;61.70
51175;DHT22;37240;50.104;20.010;2023-07-31T19:57:49;25.00;62.40
51175;DHT22;37240;50.104;20.010;2023-07-31T20:02:49;25.00;64.10
51175;DHT22;37240;50.104;20.010;2023-07-31T20:07:50;24.90;65.10
51175;DHT22;37240;50.104;20.010;2023-07-31T20:12:50;24.80;65.30
51175;DHT22;37240;50.104;20.010;2023-07-31T20:17:51;24.60;65.00
51175;DHT22;37240;50.104;20.010;2023-07-31T20:22:51;24.60;67.10
51175;DHT22;37240;50.104;20.010;2023-07-31T20:27:52;24.50;68.50
51175;DHT22;37240;50.104;20.010;2023-07-31T20:32:53;24.30;70.40
51175;DHT22;37240;50.104;20.010;2023-07-31T20:37:53;24.20;70.90
51175;DHT22;37240;50.104;20.010;2023-07-31T20:42:58;23.90;71.60
51175;DHT22;37240;50.104;20.010;2023-07-31T20:47:59;23.80;73.10
51175;DHT22;37240;50.104;20.010;2023-07-31T20:52:59;23.80;72.60
51175;DHT22;37240;50.104;20.010;2023-07-31T20:58:00;23.70;72.50
51175;DHT22;37240;50.104;20.010;2023-07-31T21:03:01;23.60;72.70
51175;DHT22;37240;50.104;20.010;2023-07-31T21:08:02;23.50;74.00
51175;DHT22;37240;50.104;20.010;2023-07-31T21:13:03;23.50;75.80
51175;DHT22;37240;50.104;20.010;2023-07-31T21:18:03;23.50;76.50
51175;DHT22;37240;50.104;20.010;2023-07-31T21:23:04;23.40;77.30
51175;DHT22;37240;50.104;20.010;2023-07-31T21:28:04;23.40;77.80
51175;DHT22;37240;50.104;20.010;2023-07-31T21:33:05;23.20;78.70
51175;DHT22;37240;50.104;20.010;2023-07-31T21:38:05;23.10;78.20
51175;DHT22;37240;50.104;20.010;2023-07-31T21:43:06;22.90;79.90
51175;DHT22;37240;50.104;20.010;2023-07-31T21:48:07;22.90;81.40
51175;DHT22;37240;50.104;20.010;2023-07-31T21:53:07;22.90;81.50
51175;DHT22;37240;50.104;20.010;2023-07-31T21:58:08;22.70;82.20
51175;DHT22;37240;50.104;20.010;2023-07-31T22:03:08;22.70;84.70
51175;DHT22;37240;50.104;20.010;2023-07-31T22:08:09;22.60;86.50
51175;DHT22;37240;50.104;20.010;2023-07-31T22:13:10;22.50;88.60
51175;DHT22;37240;50.104;20.010;2023-07-31T22:18:10;22.40;88.70
51175;DHT22;37240;50.104;20.010;2023-07-31T22:23:11;22.20;89.40
51175;DHT22;37240;50.104;20.010;2023-07-31T22:28:11;22.20;88.90
51175;DHT22;37240;50.104;20.010;2023-07-31T22:33:12;22.20;90.70
51175;DHT22;37240;50.104;20.010;2023-07-31T22:38:12;22.00;90.40
51175;DHT22;37240;50.104;20.010;2023-07-31T22:43:13;21.80;91.10
51175;DHT22;37240;50.104;20.010;2023-07-31T22:48:13;21.50;92.80
51175;DHT22;37240;50.104;20.010;2023-07-31T22:53:14;21.60;93.50
51175;DHT22;37240;50.104;20.010;2023-07-31T22:58:14;21.60;92.60
51175;DHT22;37240;50.104;20.010;2023-07-31T23:03:15;21.60;93.80
51175;DHT22;37240;50.104;20.010;2023-07-31T23:08:15;21.60;92.80
51175;DHT22;37240;50.104;20.010;2023-07-31T23:13:17;21.50;94.00
51175;DHT22;37240;50.104;20.010;2023-07-31T23:18:17;21.50;93.20
51175;DHT22;37240;50.104;20.010;2023-07-31T23:23:18;21.40;94.60
51175;DHT22;37240;50.104;20.010;2023-07-31T23:28:19;21.40;94.20
51175;DHT22;37240;50.104;20.010;2023-07-31T23:33:20;21.40;94.80
51175;DHT22;37240;50.104;20.010;2023-07-31T23:38:21;21.30;94.80
51175;DHT22;37240;50.104;20.010;2023-07-31T23:43:21;21.20;95.20
51175;DHT22;37240;50.104;20.010;2023-07-31T23:48:22;21.20;95.30
51175;DHT22;37240;50.104;20.010;2023-07-31T23:53:22;21.20;95.80
51175;DHT22;37240;50.104;20.010;2023-07-31T23:58:24;21.10;95.80
